Time;durP1;ratioP1;P1;durP2;ratioP2;P2;SDS_P1;SDS_P2;PMS_P1;PMS_P2;Temp;Humidity;BMP_temperature;BMP_pressure;BME280_temperature;BME280_humidity;BME280_pressure;Samples;Min_cycle;Max_cycle;Signal;HPM_P1;HPM_P2
2023/07/01 00:08:54;;;;;;;73.28;49.22;;;;;;;26.90;38.88;101523.09;21079483;28;20070;-61
2023/07/01 00:18:56;;;;;;;65.30;46.92;;;;;;;26.84;38.57;101525.97;21077794;28;20441;-57
2023/07/01 00:28:57;;;;;;;66.28;47.92;;;;;;;26.84;38.80;101541.97;21078100;28;20121;-58
2023/07/01 00:38:59;;;;;;;63.47;46.55;;;;;;;26.65;38.27;101530.78;21077354;28;20044;-59
2023/07/01 00:49:00;;;;;;;64.07;45.97;;;;;;;26.73;37.94;101569.41;21076591;28;20036;-59
2023/07/01 00:59:05;;;;;;;63.47;44.70;;;;;;;26.69;37.99;101593.59;21075674;28;20048;-60
2023/07/01 01:09:20;;;;;;;59.15;44.15;;;;;;;26.61;37.30;101577.44;21075778;28;20032;-59
2023/07/01 01:19:52;;;;;;;59.40;43.50;;;;;;;26.51;37.76;101595.28;21075072;28;20040;-59
2023/07/01 01:29:53;;;;;;;60.17;41.75;;;;;;;26.56;37.78;101616.81;21086452;28;20048;-60
2023/07/01 01:40:09;;;;;;;59.28;43.80;;;;;;;26.53;37.60;101665.16;21092048;28;20044;-59
2023/07/01 01:50:21;;;;;;;54.75;40.22;;;;;;;26.50;37.92;101677.00;21090609;28;20074;-58
2023/07/01 02:00:26;;;;;;;57.15;42.08;;;;;;;26.46;37.99;101687.16;21089845;28;20040;-58
2023/07/01 02:10:27;;;;;;;56.92;41.47;;;;;;;26.43;37.58;101682.97;21089485;28;20048;-59
2023/07/01 02:20:31;;;;;;;56.03;39.58;;;;;;;26.22;37.02;101648.69;21088437;28;20036;-59
2023/07/01 02:30:34;;;;;;;50.67;37.92;;;;;;;26.34;36.69;101656.66;21087731;28;20056;-59
2023/07/01 02:40:39;;;;;;;51.88;37.40;;;;;;;26.36;40.01;101660.84;21086363;28;20044;-59
2023/07/01 02:50:40;;;;;;;50.38;37.05;;;;;;;26.48;42.46;101654.00;21086478;28;20033;-59
2023/07/01 03:00:41;;;;;;;50.58;37.92;;;;;;;26.61;44.35;101662.50;21085910;28;20032;-59
2023/07/01 03:10:43;;;;;;;51.80;38.05;;;;;;;26.69;45.26;101652.56;21085258;28;20487;-59
2023/07/01 03:20:44;;;;;;;47.45;36.40;;;;;;;26.79;45.61;101643.97;21084130;28;20074;-58
2023/07/01 03:30:46;;;;;;;50.60;37.53;;;;;;;26.83;45.66;101631.00;21082983;28;20040;-60
2023/07/01 03:40:47;;;;;;;47.35;34.58;;;;;;;26.97;46.10;101633.03;21081694;28;20043;-58
2023/07/01 03:50:49;;;;;;;48.13;35.88;;;;;;;27.02;46.10;101632.97;21081177;28;20062;-59
2023/07/01 04:00:52;;;;;;;46.08;34.47;;;;;;;27.09;46.19;101644.69;21080372;28;20040;-59
2023/07/01 04:10:56;;;;;;;44.67;32.95;;;;;;;27.17;46.26;101648.75;21080270;28;20040;-58
2023/07/01 04:20:57;;;;;;;42.50;32.17;;;;;;;27.17;46.67;101629.09;21079208;28;20487;-60
2023/07/01 04:30:59;;;;;;;44.95;33.72;;;;;;;27.25;46.48;101643.25;21078349;28;20051;-58
2023/07/01 04:41:05;;;;;;;42.38;31.75;;;;;;;27.31;46.23;101642.06;21077758;28;20044;-59
2023/07/01 04:51:09;;;;;;;41.40;30.02;;;;;;;27.38;46.52;101635.19;21078080;28;20040;-60
2023/07/01 05:01:10;;;;;;;41.28;30.90;;;;;;;27.41;46.35;101640.22;21076831;28;20044;-59
2023/07/01 05:11:12;;;;;;;35.08;28.42;;;;;;;27.31;46.29;101607.50;21076403;28;20028;-59
2023/07/01 05:21:13;;;;;;;38.53;29.58;;;;;;;27.46;46.45;101609.19;21076057;28;20102;-58
2023/07/01 05:31:15;;;;;;;39.95;29.35;;;;;;;27.53;46.28;101604.81;21074935;28;20048;-59
2023/07/01 05:41:16;;;;;;;36.70;27.42;;;;;;;27.55;46.26;101605.34;21075426;28;20105;-59
2023/07/01 05:51:17;;;;;;;35.55;27.25;;;;;;;27.59;45.96;101585.88;21074748;28;20040;-57
2023/07/01 06:01:19;;;;;;;35.40;27.13;;;;;;;27.62;45.95;101580.44;21074434;28;20040;-59
2023/07/01 06:11:20;;;;;;;36.88;27.58;;;;;;;27.67;45.88;101587.13;21077183;28;20032;-59
2023/07/01 06:21:22;;;;;;;34.85;26.92;;;;;;;27.70;45.90;101580.88;21088629;28;20465;-59
2023/07/01 06:31:23;;;;;;;37.10;27.95;;;;;;;27.73;46.04;101591.56;21087542;28;20040;-59
2023/07/01 06:41:25;;;;;;;34.45;25.92;;;;;;;27.73;45.77;101566.25;21087101;28;20104;-59
2023/07/01 06:51:26;;;;;;;34.92;27.35;;;;;;;27.77;45.60;101579.38;21086277;28;20032;-59
2023/07/01 07:01:28;;;;;;;32.38;24.73;;;;;;;27.71;45.60;101560.88;21085603;28;20051;-59
2023/07/01 07:11:29;;;;;;;32.53;25.80;;;;;;;27.81;45.77;101571.97;21084741;28;20040;-59
2023/07/01 07:21:35;;;;;;;30.80;24.40;;;;;;;27.80;45.78;101564.66;21082514;28;20077;-58
2023/07/01 07:31:42;;;;;;;31.27;24.73;;;;;;;27.83;45.56;101586.53;21083101;28;20475;-58
2023/07/01 07:41:45;;;;;;;31.42;23.95;;;;;;;27.84;45.76;101581.75;21082060;28;20441;-58
2023/07/01 07:51:47;;;;;;;29.88;23.00;;;;;;;27.86;45.44;101562.59;21081500;28;20035;-59
2023/07/01 08:01:48;;;;;;;29.38;22.33;;;;;;;27.88;45.53;101565.09;21080484;28;20548;-60
2023/07/01 08:11:49;;;;;;;28.40;22.08;;;;;;;27.89;45.45;101569.56;21080171;28;20063;-58
2023/07/01 08:21:51;;;;;;;26.23;20.52;;;;;;;27.91;45.55;101561.66;21078970;28;20101;-59
2023/07/01 08:31:52;;;;;;;27.42;21.10;;;;;;;27.92;45.56;101566.13;21078375;28;20045;-58
2023/07/01 08:42:04;;;;;;;27.20;21.35;;;;;;;27.90;45.54;101563.59;21077612;28;20052;-58
2023/07/01 08:52:09;;;;;;;26.17;20.25;;;;;;;27.79;45.50;101534.03;21077266;28;20040;-58
2023/07/01 09:02:17;;;;;;;23.92;20.08;;;;;;;27.94;45.48;101566.63;21075634;28;20044;-59
2023/07/01 09:12:18;;;;;;;22.95;19.08;;;;;;;27.96;45.61;101572.78;21076280;28;20090;-61
2023/07/01 09:22:19;;;;;;;21.83;18.35;;;;;;;27.94;45.41;101575.91;21075632;28;20047;-59
2023/07/01 09:32:32;;;;;;;23.13;18.95;;;;;;;27.96;45.47;101578.41;21073864;28;20044;-59
2023/07/01 09:42:49;;;;;;;23.05;18.27;;;;;;;27.93;45.71;101595.91;21074869;28;20431;-59
2023/07/01 09:52:53;;;;;;;20.90;17.02;;;;;;;27.94;45.32;101591.94;21089406;28;20048;-59
2023/07/01 10:02:57;;;;;;;20.85;17.13;;;;;;;27.99;45.61;101612.34;21090525;28;20047;-59
2023/07/01 10:13:03;;;;;;;20.25;16.70;;;;;;;27.97;45.51;101620.28;21089314;28;20052;-58
2023/07/01 10:23:04;;;;;;;22.50;17.38;;;;;;;27.99;45.63;101632.03;21088397;28;20044;-60
2023/07/01 10:33:30;;;;;;;20.95;16.08;;;;;;;27.95;45.62;101618.91;21088154;28;20483;-59
2023/07/01 10:43:40;;;;;;;20.67;16.38;;;;;;;27.98;45.58;101621.13;21086536;28;20055;-60
2023/07/01 10:54:02;;;;;;;19.17;15.73;;;;;;;27.96;45.74;101634.69;21086386;28;20036;-58
2023/07/01 11:04:03;;;;;;;19.67;16.25;;;;;;;28.01;45.60;101634.56;21085203;28;20051;-60
2023/07/01 11:14:08;;;;;;;18.58;15.10;;;;;;;28.01;45.72;101637.38;21084385;28;20044;-60
2023/07/01 11:24:10;;;;;;;18.35;14.30;;;;;;;28.01;45.63;101643.00;21083226;28;20052;-59
2023/07/01 11:34:20;;;;;;;17.65;13.95;;;;;;;28.01;45.62;101643.00;21082708;28;20048;-58
2023/07/01 11:44:24;;;;;;;16.88;13.65;;;;;;;27.94;45.83;101614.44;21082057;28;20044;-59
2023/07/01 11:54:47;;;;;;;16.42;13.80;;;;;;;27.99;45.77;101637.69;21081535;28;20552;-59
2023/07/01 12:04:52;;;;;;;15.93;13.35;;;;;;;28.02;45.71;101644.66;21080575;28;20040;-59
2023/07/01 12:15:15;;;;;;;15.02;12.85;;;;;;;28.03;45.84;101663.22;21079340;28;20051;-59
2023/07/01 12:25:19;;;;;;;16.17;12.35;;;;;;;28.03;45.78;101664.03;21078821;28;20391;-60
2023/07/01 12:35:20;;;;;;;16.27;13.07;;;;;;;28.06;45.66;101645.72;21078136;28;20052;-59
2023/07/01 12:45:21;;;;;;;16.00;12.20;;;;;;;28.02;45.99;101650.28;21077367;28;20027;-60
2023/07/01 12:55:23;;;;;;;13.38;11.88;;;;;;;28.07;46.06;101658.63;21076572;28;20044;-59
2023/07/01 13:05:25;;;;;;;13.43;11.48;;;;;;;28.06;45.95;101634.47;21076566;28;20047;-59
2023/07/01 13:15:32;;;;;;;14.95;11.95;;;;;;;28.07;45.85;101638.94;21075799;28;20044;-58
2023/07/01 13:25:33;;;;;;;14.65;12.05;;;;;;;28.08;45.93;101644.22;21086641;28;20157;-59
2023/07/01 13:35:38;;;;;;;14.52;11.88;;;;;;;28.09;45.97;101661.97;21091986;28;20056;-59
2023/07/01 13:45:39;;;;;;;13.95;11.32;;;;;;;28.06;45.97;101659.78;21090802;28;20040;-59
2023/07/01 13:55:41;;;;;;;13.10;10.70;;;;;;;28.09;46.07;101650.72;21089990;28;20097;-59
2023/07/01 14:05:43;;;;;;;13.30;11.32;;;;;;;28.03;46.11;101663.22;21089736;28;20483;-58
2023/07/01 14:15:50;;;;;;;14.50;12.05;;;;;;;28.09;46.27;101656.34;21088968;28;20039;-58
2023/07/01 14:25:52;;;;;;;13.20;11.20;;;;;;;28.10;46.29;101660.81;21088226;28;20368;-59
2023/07/01 14:35:53;;;;;;;13.48;11.23;;;;;;;28.07;46.07;101642.56;21086766;28;20044;-59
2023/07/01 14:45:54;;;;;;;14.10;11.20;;;;;;;28.09;46.18;101643.13;21086645;28;20071;-59
2023/07/01 14:55:56;;;;;;;13.52;11.60;;;;;;;28.10;46.13;101649.56;21084608;28;20093;-59
2023/07/01 15:05:57;;;;;;;13.00;11.45;;;;;;;27.97;46.44;101613.84;21084725;28;20094;-58
2023/07/01 15:15:59;;;;;;;15.23;12.18;;;;;;;28.11;46.31;101637.16;21084249;28;20040;-58
2023/07/01 15:26:01;;;;;;;16.77;13.70;;;;;;;28.12;46.17;101642.47;21082190;28;20487;-59
2023/07/01 15:36:02;;;;;;;20.92;15.77;;;;;;;28.14;46.28;101625.28;21082772;28;20464;-58
2023/07/01 15:46:04;;;;;;;20.80;16.27;;;;;;;28.14;45.90;101630.91;21081010;28;20109;-59
2023/07/01 15:56:05;;;;;;;26.73;20.05;;;;;;;28.12;45.84;101599.44;21077044;28;20479;-59
2023/07/01 16:06:10;;;;;;;38.78;20.60;;;;;;;28.14;46.01;101569.00;21069766;28;20139;-60
2023/07/01 16:16:14;;;;;;;38.47;21.08;;;;;;;28.01;46.19;101547.34;21041111;28;20110;-59
2023/07/01 16:26:41;;;;;;;37.50;21.60;;;;;;;28.11;45.93;101575.25;21049202;28;20040;-59
2023/07/01 16:36:43;;;;;;;86.47;25.70;;;;;;;28.16;45.98;101575.16;21064376;28;20048;-60
2023/07/01 16:46:45;;;;;;;82.55;26.52;;;;;;;28.17;45.99;101579.63;21074289;28;20047;-58
2023/07/01 16:56:54;;;;;;;55.33;23.30;;;;;;;28.04;45.81;101546.72;21073687;28;20055;-60
2023/07/01 17:06:55;;;;;;;53.72;24.23;;;;;;;28.20;46.01;101573.38;21058835;28;20105;-60
2023/07/01 17:16:57;;;;;;;76.88;24.40;;;;;;;28.21;46.30;101558.13;21071194;28;20040;-60
2023/07/01 17:26:58;;;;;;;59.47;23.73;;;;;;;28.22;46.43;101554.16;21015003;28;20067;-59
2023/07/01 17:36:59;;;;;;;69.57;24.92;;;;;;;28.10;46.78;101506.06;21058248;28;20367;-58
2023/07/01 17:47:01;;;;;;;60.53;23.20;;;;;;;28.22;46.96;101485.81;21050862;28;20041;-59
2023/07/01 17:57:06;;;;;;;53.92;25.85;;;;;;;28.25;46.72;101497.25;21064326;28;20047;-60
2023/07/01 18:07:07;;;;;;;41.13;23.58;;;;;;;28.27;46.59;101499.75;21076366;28;20038;-59
2023/07/01 18:17:08;;;;;;;43.72;25.05;;;;;;;28.27;46.40;101478.09;21089467;28;20066;-59
2023/07/01 18:27:10;;;;;;;45.35;25.40;;;;;;;28.30;46.30;101462.53;21088635;28;20403;-59
2023/07/01 18:37:20;;;;;;;44.60;24.70;;;;;;;28.30;46.24;101425.94;21087338;28;20040;-60
2023/07/01 18:47:21;;;;;;;37.95;23.55;;;;;;;28.32;46.31;101412.41;21087670;28;20040;-61
2023/07/01 18:57:23;;;;;;;38.75;25.02;;;;;;;28.33;46.34;101414.88;21085787;28;20036;-59
2023/07/01 19:07:24;;;;;;;38.78;24.38;;;;;;;28.33;46.30;101409.25;21084938;28;20113;-58
2023/07/01 19:17:28;;;;;;;35.58;24.77;;;;;;;28.35;46.27;101390.09;21084860;28;20051;-60
2023/07/01 19:27:35;;;;;;;36.45;24.92;;;;;;;28.34;45.88;101365.91;21083314;28;20098;-61
2023/07/01 19:37:36;;;;;;;35.58;25.55;;;;;;;28.31;43.23;101366.50;21082513;28;20553;-60
2023/07/01 19:47:39;;;;;;;33.75;24.88;;;;;;;28.11;41.76;101336.09;21082446;28;20035;-60
2023/07/01 19:57:40;;;;;;;35.38;25.95;;;;;;;27.94;40.84;101345.25;21081349;28;20048;-58
2023/07/01 20:07:43;;;;;;;34.30;24.95;;;;;;;27.78;39.91;101324.28;21080904;28;20040;-58
2023/07/01 20:17:44;;;;;;;35.75;25.65;;;;;;;27.69;39.68;101329.81;21079580;28;20040;-59
2023/07/01 20:27:49;;;;;;;35.67;25.27;;;;;;;27.58;39.25;101331.19;21078842;28;20040;-59
2023/07/01 20:37:51;;;;;;;34.58;25.27;;;;;;;27.48;38.78;101325.81;21077580;28;20137;-58
2023/07/01 20:47:52;;;;;;;33.22;24.25;;;;;;;27.44;38.86;101330.41;21078521;28;20036;-58
2023/07/01 20:57:54;;;;;;;33.38;25.65;;;;;;;27.34;38.54;101326.66;21076536;28;20078;-58
2023/07/01 21:07:55;;;;;;;33.53;24.92;;;;;;;27.23;38.20;101318.81;21076070;28;20051;-62
2023/07/01 21:17:57;;;;;;;32.25;23.63;;;;;;;27.18;38.15;101322.56;21075824;28;20044;-58
2023/07/01 21:28:03;;;;;;;30.27;23.48;;;;;;;27.11;38.28;101302.47;21075162;28;20097;-59
2023/07/01 21:38:07;;;;;;;30.70;23.00;;;;;;;27.04;37.82;101290.81;21074977;28;20066;-59
2023/07/01 21:48:12;;;;;;;32.08;23.67;;;;;;;26.98;37.93;101283.63;21090267;28;20437;-59
2023/07/01 21:58:28;;;;;;;33.28;23.85;;;;;;;26.92;38.25;101293.31;21091100;28;20036;-58
2023/07/01 22:08:29;;;;;;;31.60;23.58;;;;;;;26.85;37.73;101274.94;21089684;28;20044;-58
2023/07/01 22:18:31;;;;;;;29.85;23.38;;;;;;;26.83;37.77;101294.06;21089304;28;20036;-59
2023/07/01 22:28:33;;;;;;;33.38;24.95;;;;;;;26.77;37.60;101295.31;21087976;28;20101;-58
2023/07/01 22:38:35;;;;;;;31.88;23.45;;;;;;;26.74;37.46;101295.09;21087403;28;20435;-58
2023/07/01 22:48:36;;;;;;;32.63;24.30;;;;;;;26.70;37.17;101310.91;21086489;28;20116;-58
2023/07/01 22:58:37;;;;;;;33.92;24.08;;;;;;;26.66;37.00;101307.03;21085494;28;20051;-59
2023/07/01 23:08:39;;;;;;;33.05;24.27;;;;;;;26.57;36.65;101302.19;21084871;28;20039;-59
2023/07/01 23:18:40;;;;;;;33.10;24.90;;;;;;;26.54;36.69;101321.63;21084626;28;20044;-59
2023/07/01 23:28:44;;;;;;;33.08;24.65;;;;;;;26.51;36.49;101319.41;21083545;28;20438;-58
2023/07/01 23:38:45;;;;;;;36.00;26.00;;;;;;;26.44;35.37;101286.16;21083230;28;20065;-59
2023/07/01 23:48:46;;;;;;;37.33;25.75;;;;;;;26.38;35.84;101269.69;21081620;28;20086;-59
2023/07/01 23:58:48;;;;;;;34.63;25.17;;;;;;;26.35;35.84;101271.97;21081905;28;20097;-59
